Startpagina
METAR-TAF:

METAR-TAF

Vliegvelden :

Anchorage, Alaska, Verenigde Staten

breedte: 61-11N, lengte: 149-58W, hoogte: 22 m

Actueel weer

Dit bericht is 25 minuten geleden gemaakt, om 16:53 UTC
Wind 3 kt uit het noordnoordoosten
Temperatuur 0°C
Vochtigheid 86%
Druk 995 hPa
Zicht: 16.1 km
Gebroken wolken op 3300 ft
Geheel bewolkt op 4500 ft

METAR: PALH 181653Z 03003KT 10SM BKN033 OVC045 00/M02 A2938 RMK AO2 SNE30 SLP950 P0000 T00001022

Tijdstip: 09:18 (17:18 UTC)


TAF: ontbreekt

Waarnemingen en weersverwachtingen van meer dan 4000 vliegvelden (METAR en TAF).

De beschikbare stations zijn de gele en rode punten op de kaart.

Ga met uw muis naar het station om de naam te zien.

Klik dan om waarnemingen en weersverwachtingen te zien.

kaart wijzigen: klik op de groene knoppen met een zwart kruis om in te zoomen, op de groene knop met een streepje om uit te zoomen of op de groene pijlen voor aangrenzende kaarten.


METAR-TAF: